[Jeden Dienstag | EDDT] Berlin Tuesday

Zu Eventkalender hinzugefügt: 53 Daten

Tim Gerstenberg

1477025
RG Berlin - Event


Es ist schon wieder Dienstag und das bedeutet "Berlin Tuesday" - Der Sommer verabschiedet sich ja irgendwie mancherorts schon wieder, sodass sich ein virtueller Besuch nach Berlin immer lohnt. Die ATC Crew ist ready und wartet heute Abend auf euch. Die letzte Woche hat gezeigt, dass sie auch mit viel Verkehr umgehen können. Das Wetter schiebt dazu eine ruhige Kugel!

TAF: EDDT 250500Z 2506/2606 26009KT CAVOK

----------------------------------------

It's already Tuesday again and that means "Berlin Tuesday" - summer is saying goodbye again in some places, so a virtual visit to Berlin is always worthwhile. The ATC crew is ready and waiting for you tonight. The last week has shown that they can handle a lot of traffic. And the weather is keeping things quiet!

TAF: EDDT 250500Z 2506/2606 26009KT CAVOK
 

Tim Gerstenberg

1477025
RG Berlin - Event


Auch heute ist es wieder soweit, es ist Dienstag und das heißt Berlin Tuesday. An einem kühlen aber dennoch schönen Spätsommer Tag freuen wir uns, euch in der Berliner Kontrollzone begrüßen zu dürfen. Wie immer erwartet euch eine Top-Besetzung und diese Woche zusätzlich das Approach CPT von @Hannes Altmann.

Fliegt also von oder nach Berlin EDDT oder EDDB, bis später!

TAF: EDDT 010500Z 0106/0206 01003KT CAVOK BECMG 0106/0108 03008KT BECMG 0119/0121 35003KT

----------------------------------------

Today is Tuesday again, and that means Berlin Tuesday. On a cool but still beautiful late summer day we are happy to welcome you to the Berlin control zone. As always you can expect a top line-up and this week additionally the Approach CPT by @Hannes Altmann.

So fly from or to Berlin EDDT or EDDB, see you later!

TAF: EDDT 010500Z 0106/0206 01003KT CAVOK BECMG 0106/0108 03008KT BECMG 0119/0121 35003KT
 

Tim Gerstenberg

1477025
RG Berlin - Event


Auch heute ist es wieder soweit, es ist Dienstag und das heißt Berlin Tuesday. An einem kühlen aber dennoch schönen Spätsommer Tag freuen wir uns, euch in der Berliner Kontrollzone begrüßen zu dürfen. Wie immer erwartet euch eine Top-Besetzung und diese Woche zusätzlich das Approach CPT von @Hannes Altmann.

Fliegt also von oder nach Berlin EDDT oder EDDB, bis später!

TAF: EDDT 010500Z 0106/0206 01003KT CAVOK BECMG 0106/0108 03008KT BECMG 0119/0121 35003KT

----------------------------------------

Today is Tuesday again, and that means Berlin Tuesday. On a cool but still beautiful late summer day we are happy to welcome you to the Berlin control zone. As always you can expect a top line-up and this week additionally the Approach CPT by @Hannes Altmann.

So fly from or to Berlin EDDT or EDDB, see you later!

TAF: EDDT 010500Z 0106/0206 01003KT CAVOK BECMG 0106/0108 03008KT BECMG 0119/0121 35003KT
Wir freuen uns auf euch, bis gleich! :cool:
 

Tim Gerstenberg

1477025
RG Berlin - Event


Die RG Berlin lädt euch heute mit einer grandiosen Vollbesetzung zum Berlin Tuesday ein! Von Delivery bis Center ist jede Station besetzt, inklusive 4 Lotsen im Approach Sektor. Auch EDDB Schönefeld (bzw. der neue BER) wird besetzt sein.
Scheint als könnte das Wetter heute auch noch eine abwechslungsreiche Rolle spielen.

EDDT 080950Z 26016KT 230V290 CAVOK 21/10 Q1023 TEMPO 26015G25KT

Wir freuen uns, euch ab 18z/20lcl bei einem Flug von oder nach Berlin begrüßen zu dürfen. Auch VFR bietet sich bei den angrenzenden Kontrollzonen aus EDDT & EDDB an, der MFS2020 z.B. hat für Berlin echt tolle Grafiken parat.
Bis später ;)

----------------------------------------

The RG Berlin invites you today to the Berlin Tuesday with a terrific full cast! From delivery to center, every station is manned, including 4 controllers in the approach sector. Also EDDB Schönefeld (or the new BER) will be manned.
It seems that the weather might also play a role in the game today.

EDDT 080950Z 26016KT 230V290 CAVOK 21/10 Q1023 TEMPO 26015G25KT

We look forward to welcoming you from 18z/20lcl on a flight to or from Berlin. VFR is also a good choice for the adjacent control zones from EDDT & EDDB, the MFS2020 for example has really great graphics for Berlin.
See you later;)
 

Tim Gerstenberg

1477025
RG Berlin - Event

Beim heutigen Berlin Tuesday haben wir wieder die absolute Vollbesetzung für euch am Start. Die letzte Woche mit über 120 Flugbewegungen in etwas über 2h hat gezeigt, dass die Berliner Crew mit viel Traffic gut umgehen kann. Diese Woche haben wir sogar einen echten DFS-Lotsen im Approach Bereich - ob wir die 120 Flugbewegungen diese Woche wieder knacken?

Wir freuen uns, euch bei einem IFR oder VFR Flug von oder nach Tegel begrüßen zu dürfen, bis später ;-)

PS.: Wie immer sind wir auch schon vor 18z und auch noch nach 2030z online 🤪

----------------------------------------

At today's Berlin Tuesday we have again the absolute full cast for you at the start. The last week with more than 120 flight movements in a little more than 2 hours has shown that the Berlin crew can handle a lot of traffic well. This week we even have a real DFS controller in the approach area - will we be able to handle the 120 aircraft movements this week again?

We are looking forward to welcoming you on an IFR or VFR flight from or to Tegel, see you later ;-)

PS: As always we are online before 18z and also after 2030z
 

Tim Gerstenberg

1477025
RG Berlin - Event

Beim heutigen Berlin Tuesday haben wir wieder die absolute Vollbesetzung für euch am Start. Die letzte Woche mit über 120 Flugbewegungen in etwas über 2h hat gezeigt, dass die Berliner Crew mit viel Traffic gut umgehen kann. Diese Woche haben wir sogar einen echten DFS-Lotsen im Approach Bereich - ob wir die 120 Flugbewegungen diese Woche wieder knacken?

Wir freuen uns, euch bei einem IFR oder VFR Flug von oder nach Tegel begrüßen zu dürfen, bis später ;-)

PS.: Wie immer sind wir auch schon vor 18z und auch noch nach 2030z online 🤪

----------------------------------------

At today's Berlin Tuesday we have again the absolute full cast for you at the start. The last week with more than 120 flight movements in a little more than 2 hours has shown that the Berlin crew can handle a lot of traffic well. This week we even have a real DFS controller in the approach area - will we be able to handle the 120 aircraft movements this week again?

We are looking forward to welcoming you on an IFR or VFR flight from or to Tegel, see you later ;-)

PS: As always we are online before 18z and also after 2030z
In einer Stunde ist es soweit!
 

Tim Gerstenberg

1477025
RG Berlin - Event


Wie jeden Dienstag ist Berlin mal wieder bereit für eure Flüge! Egal, ob ihr Cargo oder Passagiere fliegt, wir bringen euch sicher über die beiden Hauptstadtflughäfen Deutschlands. Von 20:00lcl bis 22:30lcl geben wir unser Bestes für euch. Neben einem IFR-Flug begrüßen wir euch auch gerne zu einem VFR-Flug mit eurem kleinen Rasenmäher. In Berlin treffen sich nämlich nicht nur die großen und kleinen Maschinen => auch die angrenzenden Kontrollzonen aus Tegel und Schönefeld versprechen viel Spaß!

TAF: EDDT 220500Z 2206/2306 12004KT CAVOK BECMG 2209/2211 18005KT

----------------------------------------

Like every Tuesday, Berlin is ready for your flights! No matter if you fly cargo or passengers, we will bring you safely over the two airports of Germany's capital. From 18:00z to 20:30z we give our best for you. Besides an IFR flight we also welcome you to a VFR flight with your little lawnmower. In Berlin not only the big and small machines meet => also the adjacent control zones from Tegel and Schönefeld promise a lot of fun!

TAF: EDDT 220500Z 2206/2306 12004KT CAVOK BECMG 2209/2211 18005KT
 
Oben